createdAt,value
2017-09-11T00:01:40.147Z,98701.78
2017-09-11T00:04:07.535Z,98707.00
2017-09-11T00:06:35.040Z,98701.75
2017-09-11T00:09:02.425Z,98698.14
2017-09-11T00:11:29.818Z,98691.30
2017-09-11T00:13:57.218Z,98690.73
2017-09-11T00:16:24.603Z,98693.98
2017-09-11T00:18:52.146Z,98689.40
2017-09-11T00:21:19.531Z,98681.35
2017-09-11T00:23:46.927Z,98673.42
2017-09-11T00:26:14.326Z,98676.22
2017-09-11T00:28:41.715Z,98666.57
2017-09-11T00:31:09.142Z,98665.08
2017-09-11T00:33:36.533Z,98657.59
2017-09-11T00:36:03.914Z,98657.30
2017-09-11T00:38:31.362Z,98663.19
2017-09-11T00:40:58.730Z,98655.81
2017-09-11T00:43:26.643Z,98647.34
2017-09-11T00:45:54.022Z,98650.84
2017-09-11T00:48:21.411Z,98643.06
2017-09-11T00:50:48.794Z,98635.50
2017-09-11T00:53:16.234Z,98631.47
2017-09-11T00:55:43.650Z,98636.05
2017-09-11T00:58:11.035Z,98636.20
2017-09-11T01:00:38.418Z,98636.58
2017-09-11T01:03:05.818Z,98635.50
2017-09-11T01:05:33.197Z,98635.61
2017-09-11T01:08:00.735Z,98631.34
2017-09-11T01:10:28.118Z,98627.06
2017-09-11T01:12:55.514Z,98618.05
2017-09-11T01:15:22.914Z,98623.15
2017-09-11T01:17:50.298Z,98619.75
2017-09-11T01:20:17.694Z,98615.72
2017-09-11T01:22:45.079Z,98617.69
2017-09-11T01:25:12.479Z,98613.52
2017-09-11T01:27:39.874Z,98613.20
2017-09-11T01:30:07.263Z,98600.49
2017-09-11T01:32:34.678Z,98604.73
2017-09-11T01:35:02.062Z,98603.65
2017-09-11T01:37:29.455Z,98601.22
2017-09-11T01:39:57.028Z,98599.52
2017-09-11T01:42:24.411Z,98599.50
2017-09-11T01:44:51.822Z,98599.31
2017-09-11T01:47:19.216Z,98597.70
2017-09-11T01:49:46.606Z,98598.53
2017-09-11T01:52:13.991Z,98590.07
2017-09-11T01:54:41.388Z,98595.70
2017-09-11T01:57:08.918Z,98595.28
2017-09-11T01:59:36.306Z,98591.55
2017-09-11T02:02:03.694Z,98585.77
2017-09-11T02:04:31.094Z,98587.08
2017-09-11T02:06:58.471Z,98591.92
2017-09-11T02:09:25.874Z,98579.84
2017-09-11T02:11:53.260Z,98588.36
2017-09-11T02:14:20.639Z,98581.80
2017-09-11T02:16:48.039Z,98581.11
2017-09-11T02:19:15.438Z,98575.69
2017-09-11T02:21:42.983Z,98578.16
2017-09-11T02:24:10.376Z,98568.80
2017-09-11T02:26:37.779Z,98570.05
2017-09-11T02:29:05.170Z,98560.73
2017-09-11T02:31:32.565Z,98563.13
2017-09-11T02:34:00.098Z,98559.61
2017-09-11T02:36:27.483Z,98554.06
2017-09-11T02:38:54.867Z,98558.59
2017-09-11T02:41:22.255Z,98553.47
2017-09-11T02:43:49.637Z,98548.34
2017-09-11T02:46:17.038Z,98537.55
2017-09-11T02:48:44.430Z,98537.05
2017-09-11T02:51:12.182Z,98537.80
2017-09-11T02:53:39.586Z,98532.17
2017-09-11T02:56:06.986Z,98534.58
2017-09-11T02:58:34.375Z,98521.84
2017-09-11T03:01:01.758Z,98523.02
2017-09-11T03:03:29.303Z,98524.71
2017-09-11T03:05:56.682Z,98520.65
2017-09-11T03:08:24.063Z,98521.58
2017-09-11T03:10:51.449Z,98520.48
2017-09-11T03:13:18.834Z,98530.05
2017-09-11T03:15:46.471Z,98529.49
2017-09-11T03:18:13.855Z,98533.41
2017-09-11T03:20:41.240Z,98525.45
2017-09-11T03:23:08.631Z,98525.68
2017-09-11T03:25:36.010Z,98534.77
2017-09-11T03:28:03.551Z,98532.52
2017-09-11T03:30:30.927Z,98532.41
2017-09-11T03:32:58.313Z,98521.27
2017-09-11T03:35:25.697Z,98528.46
2017-09-11T03:37:53.196Z,98530.34
2017-09-11T03:40:20.747Z,98528.55
2017-09-11T03:42:48.127Z,98522.92
2017-09-11T03:45:15.527Z,98530.73
2017-09-11T03:47:42.918Z,98529.07
2017-09-11T03:50:10.310Z,98522.64
2017-09-11T03:52:37.723Z,98513.88
2017-09-11T03:55:05.107Z,98518.46
2017-09-11T03:57:32.489Z,98517.89
2017-09-11T03:59:59.875Z,98515.22
2017-09-11T04:02:27.259Z,98514.95
2017-09-11T04:04:54.664Z,98513.33
2017-09-11T04:07:22.046Z,98522.81
2017-09-11T04:09:49.431Z,98520.13
2017-09-11T04:12:16.826Z,98520.23
2017-09-11T04:14:44.211Z,98513.66
2017-09-11T04:17:11.750Z,98512.59
2017-09-11T04:19:49.173Z,98511.66
2017-09-11T04:22:16.558Z,98506.02
2017-09-11T04:24:43.946Z,98505.63
2017-09-11T04:27:11.330Z,98509.15
2017-09-11T04:29:38.724Z,98509.95
2017-09-11T04:32:06.102Z,98508.87
2017-09-11T04:34:33.647Z,98513.02
2017-09-11T04:37:01.038Z,98509.44
2017-09-11T04:39:28.423Z,98506.38
2017-09-11T04:41:55.806Z,98501.81
2017-09-11T04:44:23.191Z,98506.75
2017-09-11T04:46:50.610Z,98504.90
2017-09-11T04:49:17.998Z,98508.92
2017-09-11T04:51:45.388Z,98511.59
2017-09-11T04:54:12.780Z,98507.73
2017-09-11T04:56:40.157Z,98509.84
2017-09-11T04:59:07.546Z,98496.91
2017-09-11T05:01:35.889Z,98509.33
2017-09-11T05:04:03.346Z,98499.18
2017-09-11T05:06:30.726Z,98503.00
2017-09-11T05:08:58.125Z,98506.45
2017-09-11T05:11:25.515Z,98507.80
2017-09-11T05:13:53.059Z,98519.98
2017-09-11T05:16:20.442Z,98518.17
2017-09-11T05:18:47.831Z,98516.48
2017-09-11T05:21:15.211Z,98522.26
2017-09-11T05:23:42.607Z,98520.35
2017-09-11T05:26:10.392Z,98525.50
2017-09-11T05:28:37.769Z,98537.16
2017-09-11T05:31:05.155Z,98539.36
2017-09-11T05:33:32.577Z,98549.99
2017-09-11T05:35:59.926Z,98553.64
2017-09-11T05:38:27.462Z,98565.66
2017-09-11T05:40:54.854Z,98551.93
2017-09-11T05:43:22.233Z,98550.26
2017-09-11T05:45:49.627Z,98558.83
2017-09-11T05:48:17.012Z,98561.52
2017-09-11T05:50:44.432Z,98563.94
2017-09-11T05:53:11.814Z,98576.67
2017-09-11T05:55:39.198Z,98572.16
2017-09-11T05:58:06.587Z,98569.88
2017-09-11T06:00:33.970Z,98578.88
2017-09-11T06:03:01.832Z,98575.91
2017-09-11T06:05:29.216Z,98568.30
2017-09-11T06:07:56.595Z,98565.23
2017-09-11T06:10:23.986Z,98571.63
2017-09-11T06:12:51.366Z,98581.28
2017-09-11T06:15:18.898Z,98579.28
2017-09-11T06:17:46.282Z,98580.08
2017-09-11T06:20:13.666Z,98580.21
2017-09-11T06:22:41.055Z,98574.86
2017-09-11T06:25:08.443Z,98571.64
2017-09-11T06:27:35.864Z,98574.59
2017-09-11T06:30:03.242Z,98577.11
2017-09-11T06:32:30.633Z,98577.90
2017-09-11T06:34:58.019Z,98571.71
2017-09-11T06:37:25.402Z,98570.09
2017-09-11T06:39:52.806Z,98567.05
2017-09-11T06:42:20.181Z,98568.63
2017-09-11T06:44:47.570Z,98571.95
2017-09-11T06:47:14.962Z,98566.43
2017-09-11T06:49:42.341Z,98563.72
2017-09-11T06:52:10.158Z,98569.55
2017-09-11T06:54:37.539Z,98574.05
2017-09-11T06:57:04.924Z,98567.61
2017-09-11T06:59:32.302Z,98573.71
2017-09-11T07:01:59.686Z,98565.89
2017-09-11T07:04:27.103Z,98567.06
2017-09-11T07:06:54.483Z,98575.63
2017-09-11T07:09:21.874Z,98568.22
2017-09-11T07:11:49.269Z,98575.59
2017-09-11T07:14:16.650Z,98583.33
2017-09-11T07:16:44.049Z,98588.67
2017-09-11T07:19:11.430Z,98588.52
2017-09-11T07:21:38.922Z,98581.25
2017-09-11T07:24:06.314Z,98586.98
2017-09-11T07:26:33.694Z,98583.67
2017-09-11T07:29:01.086Z,98592.56
2017-09-11T07:31:28.471Z,98589.78
2017-09-11T07:33:56.014Z,98587.10
2017-09-11T07:36:23.394Z,98597.13
2017-09-11T07:38:50.774Z,98594.66
2017-09-11T07:41:18.171Z,98600.08
2017-09-11T07:43:45.551Z,98599.17
2017-09-11T07:46:13.086Z,98592.36
2017-09-11T07:48:40.472Z,98588.88
2017-09-11T07:51:07.858Z,98588.64
2017-09-11T07:53:35.247Z,98598.73
2017-09-11T07:56:02.638Z,98596.05
2017-09-11T07:58:30.183Z,98604.36
2017-09-11T08:00:57.570Z,98605.95
2017-09-11T08:03:24.963Z,98610.62
2017-09-11T08:05:52.359Z,98606.45
2017-09-11T08:08:19.743Z,98613.48
2017-09-11T08:10:47.136Z,98608.67
2017-09-11T08:13:14.788Z,98619.61
2017-09-11T08:15:42.171Z,98607.57
2017-09-11T08:18:09.555Z,98609.94
2017-09-11T08:20:36.965Z,98614.95
2017-09-11T08:23:04.349Z,98606.56
2017-09-11T08:25:31.730Z,98604.55
2017-09-11T08:27:59.226Z,98605.66
2017-09-11T08:30:26.609Z,98613.76
2017-09-11T08:32:53.990Z,98616.94
2017-09-11T08:35:21.395Z,98622.26
2017-09-11T08:37:50.695Z,98616.53
2017-09-11T08:40:18.087Z,98620.97
2017-09-11T08:42:45.580Z,98621.26
2017-09-11T08:45:12.972Z,98622.77
2017-09-11T08:47:40.350Z,98631.47
2017-09-11T08:50:07.859Z,98624.22
2017-09-11T08:52:35.238Z,98629.63
2017-09-11T08:55:02.626Z,98628.96
2017-09-11T08:57:30.178Z,98634.11
2017-09-11T08:59:57.583Z,98627.30
2017-09-11T09:02:24.976Z,98618.45
2017-09-11T09:04:52.370Z,98630.87
2017-09-11T09:07:19.763Z,98638.54
2017-09-11T09:12:14.178Z,98634.99
2017-09-11T09:14:41.571Z,98633.84
2017-09-11T09:17:08.967Z,98634.85
2017-09-11T09:19:36.347Z,98633.66
2017-09-11T09:22:03.771Z,98627.77
2017-09-11T09:24:31.154Z,98637.39
2017-09-11T09:26:58.536Z,98624.98
2017-09-11T09:29:25.926Z,98627.19
2017-09-11T09:31:53.320Z,98623.89
2017-09-11T09:34:21.119Z,98630.08
2017-09-11T09:36:48.502Z,98629.76
2017-09-11T09:39:15.895Z,98628.94
2017-09-11T09:41:43.279Z,98636.02
2017-09-11T09:44:10.667Z,98631.98
2017-09-11T09:46:38.059Z,98632.92
2017-09-11T09:49:05.448Z,98633.09
2017-09-11T09:51:32.833Z,98620.59
2017-09-11T09:54:00.230Z,98628.08
2017-09-11T09:56:27.614Z,98626.61
2017-09-11T09:58:55.155Z,98629.19
2017-09-11T10:01:22.539Z,98629.31
2017-09-11T10:03:49.930Z,98627.95
2017-09-11T10:06:17.322Z,98631.19
2017-09-11T10:08:44.711Z,98633.66
2017-09-11T10:11:12.118Z,98634.77
2017-09-11T10:13:39.502Z,98631.20
2017-09-11T10:16:06.893Z,98632.02
2017-09-11T10:18:34.293Z,98631.90
2017-09-11T10:21:01.666Z,98630.33
2017-09-11T10:23:29.202Z,98634.92
2017-09-11T10:25:56.590Z,98631.18
2017-09-11T10:29:00.118Z,98634.11
2017-09-11T10:31:27.506Z,98635.68
2017-09-11T10:33:55.038Z,98638.35
2017-09-11T10:36:22.419Z,98643.34
2017-09-11T10:38:49.802Z,98646.66
2017-09-11T10:41:17.200Z,98656.45
2017-09-11T10:43:44.588Z,98650.84
2017-09-11T10:46:12.139Z,98650.59
2017-09-11T10:48:39.528Z,98652.37
2017-09-11T10:51:06.913Z,98647.02
2017-09-11T10:53:34.300Z,98651.78
2017-09-11T10:56:01.682Z,98653.61
2017-09-11T10:58:29.443Z,98649.27
2017-09-11T11:00:56.832Z,98648.58
2017-09-11T11:03:24.214Z,98647.70
2017-09-11T11:05:52.061Z,98655.46
2017-09-11T11:08:19.439Z,98649.90
2017-09-11T11:10:46.976Z,98636.44
2017-09-11T11:13:14.364Z,98631.92
2017-09-11T11:15:41.750Z,98634.64
2017-09-11T11:18:09.150Z,98643.23
2017-09-11T11:20:36.530Z,98650.27
2017-09-11T11:23:03.912Z,98644.80
2017-09-11T11:25:31.299Z,98647.51
2017-09-11T11:27:58.687Z,98647.96
2017-09-11T11:30:26.070Z,98641.81
2017-09-11T11:32:53.459Z,98645.07
2017-09-11T11:35:20.842Z,98647.70
2017-09-11T11:37:48.386Z,98647.31
2017-09-11T11:40:15.771Z,98652.10
2017-09-11T11:42:43.155Z,98649.41
2017-09-11T11:45:10.571Z,98649.02
2017-09-11T11:47:37.958Z,98658.40
2017-09-11T11:50:05.356Z,98654.80
2017-09-11T11:52:32.738Z,98658.05
2017-09-11T11:55:00.128Z,98662.66
2017-09-11T11:57:27.618Z,98661.99
2017-09-11T11:59:55.006Z,98660.50
2017-09-11T12:02:22.398Z,98661.31
2017-09-11T12:04:49.781Z,98667.36
2017-09-11T12:07:17.170Z,98663.97
2017-09-11T12:09:47.435Z,98669.66
2017-09-11T12:12:14.828Z,98664.72
2017-09-11T12:14:42.219Z,98671.38
2017-09-11T12:17:09.607Z,98672.77
2017-09-11T12:19:36.999Z,98672.72
2017-09-11T12:22:04.549Z,98659.58
2017-09-11T12:24:31.926Z,98664.47
2017-09-11T12:26:59.321Z,98671.09
2017-09-11T12:29:26.710Z,98665.52
2017-09-11T12:31:54.102Z,98662.11
2017-09-11T12:34:21.967Z,98666.77
2017-09-11T12:36:49.347Z,98658.24
2017-09-11T12:39:16.731Z,98671.45
2017-09-11T12:41:44.114Z,98661.64
2017-09-11T12:44:11.494Z,98665.81
2017-09-11T12:46:39.029Z,98669.20
2017-09-11T12:49:06.412Z,98673.81
2017-09-11T12:51:33.802Z,98670.36
2017-09-11T12:54:01.194Z,98666.47
2017-09-11T12:56:28.579Z,98673.43
2017-09-11T12:58:56.119Z,98674.70
2017-09-11T13:01:23.508Z,98674.20
2017-09-11T13:03:50.886Z,98679.73
2017-09-11T13:06:18.270Z,98670.22
2017-09-11T13:08:45.655Z,98673.89
2017-09-11T13:11:13.411Z,98675.30
2017-09-11T13:13:40.790Z,98678.60
2017-09-11T13:16:08.182Z,98683.33
2017-09-11T13:18:35.579Z,98680.30
2017-09-11T13:21:02.955Z,98683.36
2017-09-11T13:23:30.370Z,98673.80
2017-09-11T13:25:57.751Z,98683.73
2017-09-11T13:28:25.140Z,98673.55
2017-09-11T13:30:52.532Z,98671.33
2017-09-11T13:33:19.911Z,98673.89
2017-09-11T13:35:47.457Z,98669.25
2017-09-11T13:38:14.855Z,98675.96
2017-09-11T13:40:42.238Z,98676.16
2017-09-11T13:43:09.631Z,98680.49
2017-09-11T13:45:37.027Z,98683.98
2017-09-11T13:48:04.527Z,98678.48
2017-09-11T13:50:31.922Z,98679.58
2017-09-11T13:52:59.304Z,98681.25
2017-09-11T13:55:26.694Z,98678.90
2017-09-11T13:57:54.081Z,98677.64
2017-09-11T14:00:21.498Z,98677.13
2017-09-11T14:02:48.882Z,98680.63
2017-09-11T14:05:16.307Z,98683.98
2017-09-11T14:07:43.704Z,98689.14
2017-09-11T14:10:11.124Z,98692.94
2017-09-11T14:12:38.701Z,98688.00
2017-09-11T14:15:06.082Z,98685.63
2017-09-11T14:17:33.474Z,98685.80
2017-09-11T14:20:00.862Z,98687.08
2017-09-11T14:22:28.252Z,98689.23
2017-09-11T14:24:55.674Z,98688.81
2017-09-11T14:27:23.066Z,98685.09
2017-09-11T14:29:50.450Z,98689.16
2017-09-11T14:32:17.843Z,98685.33
2017-09-11T14:34:45.628Z,98679.80
2017-09-11T14:37:13.111Z,98669.86
2017-09-11T14:39:40.494Z,98678.37
2017-09-11T14:42:08.002Z,98685.60
2017-09-11T14:44:35.386Z,98683.94
2017-09-11T14:47:02.783Z,98681.12
2017-09-11T14:49:30.163Z,98690.92
2017-09-11T14:51:57.598Z,98695.14
2017-09-11T14:54:25.059Z,98682.45
2017-09-11T14:56:52.438Z,98687.89
2017-09-11T15:01:49.843Z,98688.30
2017-09-11T15:04:17.236Z,98694.41
2017-09-11T15:06:44.613Z,98685.12
2017-09-11T15:09:12.107Z,98685.86
2017-09-11T15:11:39.491Z,98679.43
2017-09-11T15:14:06.892Z,98686.97
2017-09-11T15:16:34.295Z,98690.45
2017-09-11T15:19:01.687Z,98691.77
2017-09-11T15:21:29.079Z,98698.31
2017-09-11T15:23:56.514Z,98693.40
2017-09-11T15:26:23.902Z,98694.51
2017-09-11T15:28:51.310Z,98690.86
2017-09-11T15:31:18.695Z,98719.36
2017-09-11T15:33:46.101Z,98703.59
2017-09-11T15:36:13.478Z,98695.33
2017-09-11T15:38:40.872Z,98709.86
2017-09-11T15:41:08.408Z,98696.80
2017-09-11T15:43:35.794Z,98698.42
2017-09-11T15:46:03.177Z,98708.52
2017-09-11T15:48:30.591Z,98705.52
2017-09-11T15:50:57.974Z,98709.28
2017-09-11T15:53:25.382Z,98708.04
2017-09-11T15:55:52.775Z,98701.44
2017-09-11T15:58:20.158Z,98703.84
2017-09-11T16:00:47.766Z,98707.19
2017-09-11T16:03:15.151Z,98713.81
2017-09-11T16:05:42.536Z,98716.31
2017-09-11T16:08:09.923Z,98718.08
2017-09-11T16:10:47.356Z,98716.52
2017-09-11T16:13:14.849Z,98716.03
2017-09-11T16:15:42.226Z,98721.50
2017-09-11T16:18:09.613Z,98719.77
2017-09-11T16:20:37.046Z,98728.25
2017-09-11T16:23:04.428Z,98721.09
2017-09-11T16:25:31.844Z,98729.41
2017-09-11T16:27:59.235Z,98730.42
2017-09-11T16:30:26.618Z,98733.18
2017-09-11T16:32:54.166Z,98733.56
2017-09-11T16:35:21.552Z,98732.11
2017-09-11T16:37:48.943Z,98737.38
2017-09-11T16:40:16.335Z,98736.57
2017-09-11T16:42:43.718Z,98737.10
2017-09-11T16:45:11.104Z,98742.53
2017-09-11T16:47:38.503Z,98743.28
2017-09-11T16:50:05.905Z,98745.27
2017-09-11T16:52:33.354Z,98740.43
2017-09-11T16:55:03.124Z,98742.25
2017-09-11T16:57:30.529Z,98741.25
2017-09-11T16:59:57.933Z,98745.22
2017-09-11T17:02:25.322Z,98748.95
2017-09-11T17:04:52.714Z,98746.94
2017-09-11T17:07:20.162Z,98742.89
2017-09-11T17:09:47.567Z,98743.21
2017-09-11T17:12:14.976Z,98751.23
2017-09-11T17:14:42.371Z,98751.78
2017-09-11T17:17:09.755Z,98755.75
2017-09-11T17:19:37.173Z,98764.46
2017-09-11T17:22:04.558Z,98754.11
2017-09-11T17:24:31.939Z,98757.25
2017-09-11T17:26:59.334Z,98750.59
2017-09-11T17:29:26.719Z,98759.34
2017-09-11T17:31:54.094Z,98752.19
2017-09-11T17:34:21.899Z,98742.67
2017-09-11T17:36:49.285Z,98756.48
2017-09-11T17:39:16.677Z,98763.31
2017-09-11T17:41:44.070Z,98752.11
2017-09-11T17:44:11.457Z,98756.76
2017-09-11T17:46:38.834Z,98763.14
2017-09-11T17:49:06.246Z,98751.78
2017-09-11T17:51:33.636Z,98769.25
2017-09-11T17:54:01.010Z,98771.47
2017-09-11T17:56:28.402Z,98765.99
2017-09-11T17:58:55.785Z,98776.39
2017-09-11T18:01:23.527Z,98783.98
2017-09-11T18:03:50.911Z,98805.22
2017-09-11T18:06:18.291Z,98803.02
2017-09-11T18:08:45.679Z,98812.59
2017-09-11T18:11:13.062Z,98834.09
2017-09-11T18:13:40.806Z,98843.69
2017-09-11T18:16:08.187Z,98856.38
2017-09-11T18:18:35.571Z,98851.61
2017-09-11T18:21:02.958Z,98841.38
2017-09-11T18:23:30.339Z,98851.14
2017-09-11T18:25:57.872Z,98851.97
2017-09-11T18:28:25.250Z,98850.48
2017-09-11T18:30:52.630Z,98856.73
2017-09-11T18:33:20.022Z,98861.69
2017-09-11T18:35:47.406Z,98860.03
2017-09-11T18:38:15.184Z,98857.03
2017-09-11T18:40:42.564Z,98860.80
2017-09-11T18:43:09.951Z,98863.59
2017-09-11T18:45:37.347Z,98862.56
2017-09-11T18:48:04.727Z,98864.80
2017-09-11T18:50:32.273Z,98868.42
2017-09-11T18:52:59.648Z,98873.10
2017-09-11T18:55:27.030Z,98872.22
2017-09-11T18:57:54.424Z,98861.01
2017-09-11T19:00:21.808Z,98868.92
2017-09-11T19:02:49.213Z,98872.33
2017-09-11T19:05:16.591Z,98872.09
2017-09-11T19:07:43.974Z,98868.62
2017-09-11T19:10:11.407Z,98877.35
2017-09-11T19:12:38.791Z,98873.48
2017-09-11T19:15:06.634Z,98876.06
2017-09-11T19:17:34.015Z,98871.89
2017-09-11T19:20:01.408Z,98878.45
2017-09-11T19:22:28.793Z,98878.09
2017-09-11T19:24:56.179Z,98877.14
2017-09-11T19:27:23.607Z,98881.23
2017-09-11T19:29:50.993Z,98874.52
2017-09-11T19:32:18.382Z,98876.74
2017-09-11T19:34:45.768Z,98874.73
2017-09-11T19:37:13.154Z,98878.55
2017-09-11T19:39:40.697Z,98870.67
2017-09-11T19:42:08.086Z,98875.27
2017-09-11T19:44:35.471Z,98882.91
2017-09-11T19:47:02.868Z,98883.36
2017-09-11T19:49:30.242Z,98891.83
2017-09-11T19:51:57.738Z,98879.85
2017-09-11T19:54:25.118Z,98897.38
2017-09-11T19:56:52.514Z,98896.17
2017-09-11T19:59:19.922Z,98895.66
2017-09-11T20:01:47.322Z,98901.45
2017-09-11T20:04:14.865Z,98901.45
2017-09-11T20:06:42.247Z,98900.78
2017-09-11T20:09:09.626Z,98903.59
2017-09-11T20:11:37.014Z,98903.44
2017-09-11T20:14:04.416Z,98909.08
2017-09-11T20:16:31.943Z,98910.98
2017-09-11T20:18:59.340Z,98904.00
2017-09-11T20:21:26.722Z,98904.93
2017-09-11T20:23:54.115Z,98902.38
2017-09-11T20:26:21.492Z,98913.41
2017-09-11T20:28:49.036Z,98907.90
2017-09-11T20:31:16.419Z,98909.13
2017-09-11T20:33:43.818Z,98914.49
2017-09-11T20:36:11.210Z,98929.81
2017-09-11T20:38:38.599Z,98918.78
2017-09-11T20:41:06.000Z,98922.14
2017-09-11T20:43:33.374Z,98924.30
2017-09-11T20:46:00.763Z,98922.52
2017-09-11T20:48:28.147Z,98926.53
2017-09-11T20:50:55.531Z,98926.53
2017-09-11T20:53:23.066Z,98931.09
2017-09-11T20:55:50.451Z,98925.43
2017-09-11T20:58:17.846Z,98926.25
2017-09-11T21:00:45.238Z,98927.33
2017-09-11T21:03:12.623Z,98929.22
2017-09-11T21:05:40.163Z,98940.63
2017-09-11T21:08:07.543Z,98952.19
2017-09-11T21:10:34.969Z,98957.17
2017-09-11T21:13:02.323Z,98956.36
2017-09-11T21:15:29.706Z,98956.48
2017-09-11T21:17:57.250Z,98944.11
2017-09-11T21:20:24.634Z,98951.64
2017-09-11T21:22:52.018Z,98937.95
2017-09-11T21:25:19.411Z,98938.09
2017-09-11T21:27:46.802Z,98932.86
2017-09-11T21:30:14.339Z,98933.28
2017-09-11T21:32:41.719Z,98922.70
2017-09-11T21:35:09.111Z,98929.30
2017-09-11T21:37:36.495Z,98932.26
2017-09-11T21:40:03.883Z,98927.02
2017-09-11T21:42:31.330Z,98931.43
2017-09-11T21:44:58.702Z,98928.08
2017-09-11T21:47:26.087Z,98923.67
2017-09-11T21:49:53.485Z,98927.95
2017-09-11T21:52:20.864Z,98926.07
2017-09-11T21:54:48.554Z,98926.49
2017-09-11T21:57:15.937Z,98920.45
2017-09-11T21:59:43.331Z,98931.98
2017-09-11T22:02:10.727Z,98931.45
2017-09-11T22:04:38.113Z,98931.59
2017-09-11T22:07:05.804Z,98931.98
2017-09-11T22:09:33.195Z,98930.38
2017-09-11T22:12:00.580Z,98935.48
2017-09-11T22:14:27.972Z,98929.72
2017-09-11T22:16:55.360Z,98931.59
2017-09-11T22:19:22.893Z,98927.70
2017-09-11T22:21:50.271Z,98930.50
2017-09-11T22:24:17.654Z,98935.22
2017-09-11T22:26:45.051Z,98938.55
2017-09-11T22:29:12.447Z,98929.96
2017-09-11T22:31:39.978Z,98936.01
2017-09-11T22:34:07.364Z,98932.95
2017-09-11T22:36:34.751Z,98933.20
2017-09-11T22:39:02.147Z,98931.86
2017-09-11T22:41:29.534Z,98934.52
2017-09-11T22:43:57.098Z,98928.34
2017-09-11T22:46:24.475Z,98932.09
2017-09-11T22:48:51.867Z,98932.51
2017-09-11T22:51:19.256Z,98943.77
2017-09-11T22:53:46.642Z,98937.73
2017-09-11T22:56:14.200Z,98933.16
2017-09-11T22:58:41.587Z,98942.30
2017-09-11T23:01:08.965Z,98941.75
2017-09-11T23:03:36.350Z,98941.75
2017-09-11T23:06:03.742Z,98943.21
2017-09-11T23:08:31.159Z,98937.97
2017-09-11T23:10:58.538Z,98943.86
2017-09-11T23:13:25.920Z,98951.78
2017-09-11T23:15:53.315Z,98952.33
2017-09-11T23:18:20.718Z,98945.20
2017-09-11T23:20:48.230Z,98949.91
2017-09-11T23:23:15.603Z,98939.70
2017-09-11T23:25:42.983Z,98944.55
2017-09-11T23:28:10.385Z,98944.13
2017-09-11T23:30:37.762Z,98946.12
2017-09-11T23:33:05.303Z,98950.80
2017-09-11T23:35:32.683Z,98954.04
2017-09-11T23:38:00.073Z,98954.04
2017-09-11T23:40:27.474Z,98955.09
2017-09-11T23:42:54.870Z,98954.69
2017-09-11T23:45:22.269Z,98948.94
2017-09-11T23:47:49.646Z,98948.23
2017-09-11T23:50:17.030Z,98955.63
2017-09-11T23:52:44.419Z,98949.02
2017-09-11T23:55:11.814Z,98952.79
2017-09-11T23:57:39.550Z,98953.20
